createdAt,value
2017-09-21T05:08:08.470Z,40
2017-09-21T05:09:13.249Z,48
2017-09-21T05:12:32.379Z,68
2017-09-21T05:13:34.920Z,76
2017-09-21T05:14:32.362Z,88
2017-09-21T05:15:34.587Z,96
2017-09-21T05:16:41.484Z,104
2017-09-21T05:17:48.909Z,120
2017-09-21T05:18:48.378Z,132
2017-09-21T05:23:33.721Z,196
2017-09-21T05:24:33.959Z,212
2017-09-21T05:25:40.562Z,228
2017-09-21T05:26:51.074Z,252
2017-09-21T05:27:54.356Z,268
2017-09-21T05:28:58.311Z,292
2017-09-21T05:30:01.059Z,312
2017-09-21T05:31:11.120Z,340
2017-09-21T05:32:14.681Z,368
2017-09-21T05:33:20.221Z,412
2017-09-21T05:34:21.353Z,456
2017-09-21T05:35:23.684Z,504
2017-09-21T05:36:26.338Z,540
2017-09-21T05:37:29.900Z,616
2017-09-21T05:38:32.502Z,672
2017-09-21T05:39:31.988Z,744
2017-09-21T05:40:35.838Z,816
2017-09-21T05:41:39.100Z,856
2017-09-21T05:42:43.845Z,916
2017-09-21T05:43:56.796Z,988
2017-09-21T05:49:29.843Z,1892
2017-09-21T05:52:46.598Z,2272
2017-09-21T05:53:50.832Z,2412
2017-09-21T05:56:40.120Z,2960
2017-09-21T05:57:48.446Z,3084
2017-09-21T05:58:55.464Z,3216
2017-09-21T06:00:05.557Z,3448
2017-09-21T06:01:14.210Z,3556
2017-09-21T06:02:26.755Z,3636
2017-09-21T06:05:35.559Z,4248
2017-09-21T06:06:41.133Z,4344
2017-09-21T06:07:45.811Z,4488
2017-09-21T06:09:01.576Z,4900
2017-09-21T06:09:58.818Z,4980
2017-09-21T06:10:59.262Z,5300
2017-09-21T06:12:02.431Z,5404
2017-09-21T06:13:00.980Z,5496
2017-09-21T06:14:04.200Z,5824
2017-09-21T06:14:58.853Z,6004
2017-09-21T06:15:55.890Z,6320
2017-09-21T06:17:50.557Z,6460
2017-09-21T06:18:32.094Z,6684
2017-09-21T06:19:12.826Z,6780
2017-09-21T06:19:53.580Z,6868
2017-09-21T06:20:36.547Z,7008
2017-09-21T06:21:16.748Z,7132
2017-09-21T06:21:57.337Z,7196
2017-09-21T06:22:43.342Z,7196
2017-09-21T06:24:44.413Z,7592
2017-09-21T06:27:13.134Z,7812
2017-09-21T06:28:11.923Z,7792
2017-09-21T06:28:55.163Z,7652
2017-09-21T06:29:35.525Z,7768
2017-09-21T06:30:17.309Z,7916
2017-09-21T06:30:57.839Z,8132
2017-09-21T06:31:38.353Z,8188
2017-09-21T06:32:18.725Z,8188
2017-09-21T06:33:00.136Z,8208
2017-09-21T06:33:41.197Z,8284
2017-09-21T06:34:21.581Z,8468
2017-09-21T06:35:02.219Z,8620
2017-09-21T06:35:42.741Z,8680
2017-09-21T06:36:23.243Z,8600
2017-09-21T06:37:03.823Z,8836
2017-09-21T06:37:44.319Z,9044
2017-09-21T06:38:24.894Z,9360
2017-09-21T06:39:05.362Z,9348
2017-09-21T06:39:45.970Z,9364
2017-09-21T06:40:26.541Z,9360
2017-09-21T06:41:07.016Z,9680
2017-09-21T06:41:47.518Z,9748
2017-09-21T06:42:28.006Z,9896
2017-09-21T06:43:08.298Z,10284
2017-09-21T06:43:48.722Z,10400
2017-09-21T06:44:29.082Z,10576
2017-09-21T06:45:09.603Z,10740
2017-09-21T06:45:50.066Z,11056
2017-09-21T06:46:30.723Z,11304
2017-09-21T06:47:11.060Z,11436
2017-09-21T06:47:51.526Z,11548
2017-09-21T06:48:32.046Z,11784
2017-09-21T06:49:12.584Z,12280
2017-09-21T06:49:53.026Z,12808
2017-09-21T06:50:33.741Z,13600
2017-09-21T06:51:15.144Z,14208
2017-09-21T06:51:55.592Z,14496
2017-09-21T06:52:36.114Z,14208
2017-09-21T06:53:16.696Z,13888
2017-09-21T06:53:57.096Z,13152
2017-09-21T06:54:37.492Z,12692
2017-09-21T06:55:17.968Z,12544
2017-09-21T06:55:58.422Z,12336
2017-09-21T06:56:53.873Z,12100
2017-09-21T06:57:34.441Z,11788
2017-09-21T06:58:15.026Z,11588
2017-09-21T06:58:55.727Z,11224
2017-09-21T06:59:36.387Z,11048
2017-09-21T07:00:16.758Z,10880
2017-09-21T07:00:57.181Z,10696
2017-09-21T07:01:37.764Z,10680
2017-09-21T07:02:18.278Z,10640
2017-09-21T07:02:58.776Z,10240
2017-09-21T07:03:39.636Z,9944
2017-09-21T07:04:20.693Z,10100
2017-09-21T07:05:01.167Z,10384
2017-09-21T07:05:41.542Z,10376
2017-09-21T07:06:22.791Z,10080
2017-09-21T07:07:03.970Z,10072
2017-09-21T07:07:44.125Z,9932
2017-09-21T07:08:25.462Z,9636
2017-09-21T07:09:06.119Z,8992
2017-09-21T07:09:46.970Z,8048
2017-09-21T07:10:27.856Z,7656
2017-09-21T07:11:08.402Z,7808
2017-09-21T07:11:48.933Z,7948
2017-09-21T07:12:29.306Z,8020
2017-09-21T07:13:09.813Z,8048
2017-09-21T07:13:50.436Z,8076
2017-09-21T07:14:30.933Z,8096
2017-09-21T07:15:13.976Z,8296
2017-09-21T07:15:54.599Z,8624
2017-09-21T07:23:06.385Z,6676
2017-09-21T07:23:49.632Z,6536
2017-09-21T07:37:15.169Z,6516
2017-09-21T07:51:23.300Z,2920
2017-09-21T07:55:25.158Z,2648
2017-09-21T07:57:12.598Z,2616
2017-09-21T08:01:33.033Z,2488
2017-09-21T08:09:02.153Z,2404
2017-09-21T08:24:50.529Z,2404
2017-09-21T08:33:09.051Z,2396
2017-09-21T08:33:51.215Z,2400
2017-09-21T08:34:32.810Z,2392
2017-09-21T08:35:22.176Z,2392
2017-09-21T08:36:13.018Z,2372
2017-09-21T08:36:54.817Z,2324
2017-09-21T08:37:35.876Z,2288
2017-09-21T08:38:16.532Z,2288
2017-09-21T08:38:58.008Z,2260
2017-09-21T08:39:39.071Z,2220
2017-09-21T08:40:24.767Z,2172
2017-09-21T08:41:07.936Z,2160
2017-09-21T08:41:49.453Z,2144
2017-09-21T08:42:31.756Z,2120
2017-09-21T08:46:36.213Z,2228
2017-09-21T08:48:49.151Z,2336
2017-09-21T09:04:12.838Z,2280
2017-09-21T09:05:03.884Z,2268
2017-09-21T09:05:56.209Z,2260
2017-09-21T09:06:49.687Z,2188
2017-09-21T09:07:39.522Z,2136
2017-09-21T09:23:28.129Z,2140
2017-09-21T09:24:18.158Z,2136
2017-09-21T09:25:06.657Z,2132
2017-09-21T09:25:55.306Z,2128
2017-09-21T09:26:45.418Z,2120
2017-09-21T09:36:46.641Z,2060
2017-09-21T09:37:28.589Z,2052
2017-09-21T09:47:50.815Z,2008
2017-09-21T09:48:49.935Z,2000
2017-09-21T09:49:45.693Z,2000
2017-09-21T09:50:51.284Z,1996
2017-09-21T10:01:57.325Z,1908
2017-09-21T10:05:48.443Z,1876
2017-09-21T10:08:06.795Z,1904
2017-09-21T10:08:47.456Z,1900
2017-09-21T10:09:28.024Z,1888
2017-09-21T10:10:09.374Z,1872
2017-09-21T10:10:50.198Z,1860
2017-09-21T10:11:31.115Z,1856
2017-09-21T10:12:12.335Z,1852
2017-09-21T10:12:53.215Z,1840
2017-09-21T10:13:34.267Z,1848
2017-09-21T10:14:17.151Z,1840
2017-09-21T10:14:57.806Z,1832
2017-09-21T10:15:43.067Z,1808
2017-09-21T10:16:24.414Z,1784
2017-09-21T10:17:05.381Z,1776
2017-09-21T10:17:46.604Z,1752
2017-09-21T10:18:27.008Z,1748
2017-09-21T10:19:08.308Z,1740
2017-09-21T10:19:48.859Z,1736
2017-09-21T10:20:29.516Z,1724
2017-09-21T10:21:10.005Z,1716
2017-09-21T10:21:51.793Z,1712
2017-09-21T10:22:32.680Z,1668
2017-09-21T10:23:13.231Z,1644
2017-09-21T10:23:53.683Z,1660
2017-09-21T10:24:34.482Z,1680
2017-09-21T10:25:15.398Z,1708
2017-09-21T10:25:58.262Z,1720
2017-09-21T10:26:38.758Z,1756
2017-09-21T10:27:19.058Z,1740
2017-09-21T10:27:59.676Z,1724
2017-09-21T10:28:40.265Z,1732
2017-09-21T10:29:20.911Z,1736
2017-09-21T10:30:01.242Z,1744
2017-09-21T10:30:43.927Z,1740
2017-09-21T10:31:25.127Z,1752
2017-09-21T10:32:05.938Z,1748
2017-09-21T10:32:46.158Z,1744
2017-09-21T10:33:27.142Z,1740
2017-09-21T10:34:07.561Z,1744
2017-09-21T10:34:48.261Z,1752
2017-09-21T10:35:30.263Z,1740
2017-09-21T10:36:11.012Z,1736
2017-09-21T10:36:52.473Z,1728
2017-09-21T10:37:33.143Z,1724
2017-09-21T10:38:14.693Z,1728
2017-09-21T10:38:55.565Z,1732
2017-09-21T10:39:36.191Z,1724
2017-09-21T10:40:16.889Z,1744
2017-09-21T10:40:57.353Z,1752
2017-09-21T10:41:37.853Z,1752
2017-09-21T10:42:21.784Z,1756
2017-09-21T10:53:16.153Z,1748
2017-09-21T10:54:46.115Z,1728
2017-09-21T11:07:06.684Z,1676
2017-09-21T11:37:39.624Z,1724
2017-09-21T11:38:23.164Z,1720
2017-09-21T11:44:32.902Z,1692
2017-09-21T11:45:28.120Z,1684
2017-09-21T11:55:07.784Z,1612
2017-09-21T11:55:48.200Z,1564
2017-09-21T11:56:28.720Z,1532
2017-09-21T12:00:38.140Z,1544
2017-09-21T12:07:44.502Z,1512
2017-09-21T12:10:21.441Z,1500
2017-09-21T12:13:10.316Z,1472
2017-09-21T12:14:01.314Z,1476
2017-09-21T12:14:55.390Z,1468
2017-09-21T12:15:45.268Z,1472
2017-09-21T12:16:40.768Z,1460
2017-09-21T12:17:36.104Z,1468
2017-09-21T12:25:00.660Z,1492
2017-09-21T12:25:59.420Z,1472
2017-09-21T12:26:58.373Z,1472
2017-09-21T12:27:56.582Z,1488
2017-09-21T12:32:08.547Z,1468
2017-09-21T12:33:08.094Z,1484
2017-09-21T12:34:07.112Z,1480
2017-09-21T12:35:07.841Z,1480
2017-09-21T12:36:27.021Z,1448
2017-09-21T12:37:29.742Z,1444
2017-09-21T12:38:24.847Z,1428
2017-09-21T12:39:05.288Z,1416
2017-09-21T12:40:00.716Z,1424
2017-09-21T12:40:41.270Z,1428
2017-09-21T12:41:21.807Z,1436
2017-09-21T12:42:02.352Z,1448
2017-09-21T12:42:42.992Z,1448
2017-09-21T12:43:23.393Z,1464
2017-09-21T12:44:04.499Z,1476
2017-09-21T12:44:44.986Z,1476
2017-09-21T12:45:38.128Z,1488
2017-09-21T12:46:18.774Z,1500
2017-09-21T12:47:02.334Z,1496
2017-09-21T12:47:43.340Z,1488
2017-09-21T12:48:23.801Z,1484
2017-09-21T12:49:04.268Z,1476
2017-09-21T12:49:44.810Z,1496
2017-09-21T12:50:25.301Z,1496
2017-09-21T12:51:05.837Z,1488
2017-09-21T12:52:01.081Z,1492
2017-09-21T12:52:41.533Z,1500
2017-09-21T12:53:29.050Z,1492
2017-09-21T12:54:12.762Z,1484
2017-09-21T12:54:53.889Z,1468
2017-09-21T12:55:34.844Z,1464
2017-09-21T12:56:16.393Z,1476
2017-09-21T12:56:57.104Z,1472
2017-09-21T12:57:37.901Z,1448
2017-09-21T12:58:18.737Z,1428
2017-09-21T12:59:00.257Z,1420
2017-09-21T12:59:41.136Z,1428
2017-09-21T13:00:21.616Z,1440
2017-09-21T13:01:02.203Z,1460
2017-09-21T13:01:43.199Z,1472
2017-09-21T13:02:23.527Z,1452
2017-09-21T13:03:03.966Z,1452
2017-09-21T13:03:45.338Z,1444
2017-09-21T13:04:26.083Z,1448
2017-09-21T13:05:06.561Z,1452
2017-09-21T13:05:47.171Z,1460
2017-09-21T13:06:27.747Z,1448
2017-09-21T13:07:08.313Z,1440
2017-09-21T13:07:48.883Z,1440
2017-09-21T13:08:45.821Z,1448
2017-09-21T13:09:27.019Z,1432
2017-09-21T13:10:10.482Z,1440
2017-09-21T13:10:51.013Z,1444
2017-09-21T13:11:31.746Z,1452
2017-09-21T13:12:21.428Z,1464
2017-09-21T13:13:18.421Z,1476
2017-09-21T13:16:04.524Z,1464
2017-09-21T13:16:44.047Z,1456
2017-09-21T13:17:25.295Z,1468
2017-09-21T13:18:07.008Z,1488
2017-09-21T13:18:48.613Z,1496
2017-09-21T13:19:29.832Z,1228
2017-09-21T13:20:10.537Z,1236
2017-09-21T13:20:51.284Z,1356
2017-09-21T13:21:33.115Z,1520
2017-09-21T13:22:16.699Z,1532
2017-09-21T13:22:58.764Z,1532
2017-09-21T13:23:39.388Z,1544
2017-09-21T13:24:20.011Z,1552
2017-09-21T13:25:01.018Z,1552
2017-09-21T13:25:43.528Z,1548
2017-09-21T13:26:24.057Z,1536
2017-09-21T13:27:05.171Z,1524
2017-09-21T13:27:45.573Z,1524
2017-09-21T13:28:27.422Z,1520
2017-09-21T13:29:08.162Z,1520
2017-09-21T13:29:50.484Z,1520
2017-09-21T13:30:31.589Z,1536
2017-09-21T13:31:13.085Z,1536
2017-09-21T13:31:55.840Z,1532
2017-09-21T13:32:36.554Z,1520
2017-09-21T13:33:17.154Z,1512
2017-09-21T13:33:57.681Z,1512
2017-09-21T13:34:39.203Z,1532
2017-09-21T13:35:19.919Z,1544
2017-09-21T13:36:01.884Z,1564
2017-09-21T13:36:44.488Z,1560
2017-09-21T13:37:25.303Z,1556
2017-09-21T13:38:05.915Z,1540
2017-09-21T13:38:48.178Z,1528
2017-09-21T13:39:28.709Z,1532
2017-09-21T13:40:11.034Z,1528
2017-09-21T13:40:51.708Z,1528
2017-09-21T13:41:32.778Z,1544
2017-09-21T13:42:15.266Z,1556
2017-09-21T13:42:56.125Z,1556
2017-09-21T13:43:38.108Z,1552
2017-09-21T13:44:18.577Z,1544
2017-09-21T13:44:59.985Z,1532
2017-09-21T13:45:41.882Z,1536
2017-09-21T13:46:22.764Z,1532
2017-09-21T13:47:03.728Z,1504
2017-09-21T13:47:46.278Z,1480
2017-09-21T13:48:27.347Z,1480
2017-09-21T13:49:08.797Z,1484
2017-09-21T13:49:52.798Z,1472
2017-09-21T13:50:34.310Z,1480
2017-09-21T13:51:17.752Z,1480
2017-09-21T13:51:57.259Z,1492
2017-09-21T13:52:38.008Z,1488
2017-09-21T13:53:19.006Z,1480
2017-09-21T13:54:01.068Z,1472
2017-09-21T13:54:42.482Z,1480
2017-09-21T13:55:23.449Z,1484
2017-09-21T13:56:04.547Z,1480
2017-09-21T13:56:45.926Z,1484
2017-09-21T13:57:26.778Z,1484
2017-09-21T13:58:08.514Z,1484
2017-09-21T13:58:48.995Z,1484
2017-09-21T13:59:30.574Z,1488
2017-09-21T14:00:10.602Z,1492
2017-09-21T14:00:52.398Z,1492
2017-09-21T14:01:33.389Z,1500
2017-09-21T14:02:15.111Z,1508
2017-09-21T14:02:55.871Z,1504
2017-09-21T14:03:38.590Z,1492
2017-09-21T14:07:53.632Z,1484
2017-09-21T14:08:34.973Z,1488
2017-09-21T14:09:19.260Z,1492
2017-09-21T14:10:01.113Z,1516
2017-09-21T14:10:43.437Z,1516
2017-09-21T14:11:29.099Z,1504
2017-09-21T14:12:10.603Z,1520
2017-09-21T14:12:51.024Z,1528
2017-09-21T14:13:33.096Z,1524
2017-09-21T14:14:14.956Z,1512
2017-09-21T14:14:56.038Z,1520
2017-09-21T14:15:38.497Z,1532
2017-09-21T14:16:19.024Z,1540
2017-09-21T14:16:59.472Z,1532
2017-09-21T14:17:39.983Z,1504
2017-09-21T14:18:22.511Z,1480
2017-09-21T14:19:04.524Z,1464
2017-09-21T14:19:47.440Z,1432
2017-09-21T14:20:29.737Z,1428
2017-09-21T14:21:10.389Z,1432
2017-09-21T14:21:52.044Z,1408
2017-09-21T14:22:32.940Z,1448
2017-09-21T14:23:15.152Z,1456
2017-09-21T14:23:57.398Z,1448
2017-09-21T14:24:39.564Z,1444
2017-09-21T14:25:20.308Z,1448
2017-09-21T14:26:01.744Z,1452
2017-09-21T14:26:43.483Z,1452
2017-09-21T14:27:23.252Z,1440
2017-09-21T14:28:06.243Z,1460
2017-09-21T14:28:46.900Z,1468
2017-09-21T14:29:27.606Z,1464
2017-09-21T14:32:50.153Z,1444
2017-09-21T14:33:35.339Z,1468
2017-09-21T14:34:15.956Z,1484
2017-09-21T14:34:56.758Z,1476
2017-09-21T14:35:39.171Z,1472
2017-09-21T14:36:20.231Z,1460
2017-09-21T14:37:01.932Z,1464
2017-09-21T14:37:43.417Z,1468
2017-09-21T14:38:24.191Z,1472
2017-09-21T14:39:06.162Z,1472
2017-09-21T14:39:49.198Z,1464
2017-09-21T14:40:32.978Z,1460
2017-09-21T14:41:14.241Z,1448
2017-09-21T14:41:57.537Z,1436
2017-09-21T14:42:38.327Z,1408
2017-09-21T14:43:21.940Z,1412
2017-09-21T14:44:03.310Z,1404
2017-09-21T14:44:46.370Z,1400
2017-09-21T14:45:29.880Z,1392
2017-09-21T14:46:14.431Z,1404
2017-09-21T14:46:57.475Z,1412
2017-09-21T14:47:38.367Z,1412
2017-09-21T14:48:20.247Z,1424
2017-09-21T14:49:00.441Z,1428
2017-09-21T14:49:42.219Z,1428
2017-09-21T14:50:23.361Z,1448
2017-09-21T14:51:05.581Z,1448
2017-09-21T14:51:46.837Z,1460
2017-09-21T14:52:27.386Z,1468
2017-09-21T14:53:09.644Z,1468
2017-09-21T14:53:56.327Z,1464
2017-09-21T15:09:39.040Z,1388
2017-09-21T15:10:42.802Z,1368
2017-09-21T15:12:19.243Z,1356
2017-09-21T15:14:17.165Z,1340
2017-09-21T15:14:59.857Z,1328
2017-09-21T15:15:40.496Z,1312
2017-09-21T15:16:22.027Z,1300
2017-09-21T15:17:03.526Z,1304
2017-09-21T15:17:44.270Z,1300
2017-09-21T15:18:26.660Z,1292
2017-09-21T15:19:09.864Z,1288
2017-09-21T15:19:53.342Z,1240
2017-09-21T15:20:36.070Z,1256
2017-09-21T15:21:18.077Z,1276
2017-09-21T15:22:00.974Z,1280
2017-09-21T15:22:42.514Z,1272
2017-09-21T15:23:23.193Z,1256
2017-09-21T15:24:05.993Z,1248
2017-09-21T15:24:48.183Z,1240
2017-09-21T15:29:09.168Z,1192
2017-09-21T15:29:53.731Z,1192
2017-09-21T15:30:39.085Z,1184
2017-09-21T15:31:20.479Z,1180
2017-09-21T15:32:05.701Z,1176
2017-09-21T15:32:52.671Z,1164
2017-09-21T15:33:33.816Z,1160
2017-09-21T15:34:23.444Z,1156
2017-09-21T15:35:05.323Z,1144
2017-09-21T15:35:53.630Z,1140
2017-09-21T15:49:31.919Z,932
2017-09-21T15:50:39.541Z,924
2017-09-21T15:57:29.794Z,840
2017-09-21T16:03:18.449Z,768
2017-09-21T16:04:30.612Z,756
2017-09-21T16:05:43.466Z,748
2017-09-21T16:09:32.078Z,716
2017-09-21T16:10:48.496Z,700
2017-09-21T16:12:17.581Z,700
2017-09-21T16:17:27.941Z,652
2017-09-21T16:18:09.063Z,644
2017-09-21T16:18:51.734Z,640
2017-09-21T16:19:32.314Z,632
2017-09-21T16:20:14.721Z,624
2017-09-21T16:20:56.424Z,624
2017-09-21T16:21:36.813Z,624
2017-09-21T16:22:18.198Z,620
2017-09-21T16:22:59.156Z,612
2017-09-21T16:23:40.564Z,608
2017-09-21T16:24:21.263Z,600
2017-09-21T16:25:02.219Z,600
2017-09-21T16:25:43.495Z,596
2017-09-21T16:26:23.958Z,588
2017-09-21T16:27:05.647Z,584
2017-09-21T16:27:46.360Z,580
2017-09-21T16:28:27.157Z,572
2017-09-21T16:29:07.874Z,568
2017-09-21T16:29:48.526Z,568
2017-09-21T16:30:30.950Z,556
2017-09-21T16:31:12.393Z,552
2017-09-21T16:31:55.780Z,544
2017-09-21T16:32:36.967Z,536
2017-09-21T16:33:20.247Z,528
2017-09-21T16:34:05.167Z,520
2017-09-21T16:34:45.705Z,516
2017-09-21T16:35:26.710Z,508
2017-09-21T16:36:07.546Z,500
2017-09-21T16:36:48.833Z,492
2017-09-21T16:37:29.749Z,488
2017-09-21T16:38:10.767Z,480
2017-09-21T16:38:51.814Z,476
2017-09-21T16:39:32.230Z,468
2017-09-21T16:40:14.602Z,460
2017-09-21T16:40:55.292Z,456
2017-09-21T16:41:35.959Z,448
2017-09-21T16:42:17.490Z,444
2017-09-21T16:42:58.717Z,436
2017-09-21T16:43:40.654Z,428
2017-09-21T16:44:21.632Z,420
2017-09-21T16:45:03.205Z,412
2017-09-21T16:45:44.450Z,408
2017-09-21T16:46:25.147Z,400
2017-09-21T16:47:05.677Z,396
2017-09-21T16:47:46.081Z,384
2017-09-21T16:48:27.370Z,380
2017-09-21T16:49:07.984Z,376
2017-09-21T16:49:48.614Z,368
2017-09-21T16:50:29.301Z,360
2017-09-21T16:51:12.104Z,356
2017-09-21T16:51:52.388Z,348
2017-09-21T16:52:33.500Z,344
2017-09-21T16:53:14.127Z,332
2017-09-21T16:53:57.896Z,324
2017-09-21T16:54:41.064Z,316
2017-09-21T16:55:22.520Z,312
2017-09-21T16:56:02.902Z,304
2017-09-21T16:56:44.786Z,296
2017-09-21T16:57:25.077Z,288
2017-09-21T16:58:05.637Z,284
2017-09-21T16:58:46.989Z,276
2017-09-21T16:59:30.002Z,268
2017-09-21T17:28:02.161Z,40
2017-09-21T17:49:33.889Z,4
2017-09-21T17:50:33.752Z,0
2017-09-21T17:51:14.972Z,0
2017-09-21T17:51:56.377Z,0
2017-09-21T17:52:37.428Z,0
2017-09-21T17:53:19.285Z,0
2017-09-21T17:53:59.627Z,0
2017-09-21T17:54:41.329Z,0
2017-09-21T17:55:22.499Z,0
2017-09-21T17:56:03.023Z,0
2017-09-21T17:56:43.879Z,0
2017-09-21T17:57:24.125Z,0
2017-09-21T17:58:04.511Z,0
2017-09-21T17:58:45.155Z,0
2017-09-21T17:59:27.256Z,0
2017-09-21T18:00:08.471Z,0
2017-09-21T18:00:49.837Z,0
2017-09-21T18:01:30.856Z,0
2017-09-21T18:02:11.413Z,0
2017-09-21T18:02:52.213Z,0
2017-09-21T18:03:32.521Z,0
2017-09-21T18:04:13.323Z,0
2017-09-21T18:04:53.898Z,0
2017-09-21T18:05:34.446Z,0
2017-09-21T18:06:14.863Z,0
2017-09-21T18:06:55.544Z,0
2017-09-21T18:07:36.151Z,0
2017-09-21T18:08:16.569Z,0
2017-09-21T18:08:57.598Z,0
2017-09-21T18:09:38.168Z,0
2017-09-21T18:10:18.907Z,0
2017-09-21T18:10:59.511Z,0
2017-09-21T18:11:39.869Z,0
2017-09-21T18:12:23.212Z,0
2017-09-21T18:13:04.438Z,0
2017-09-21T18:13:45.246Z,0
2017-09-21T18:14:26.503Z,0
2017-09-21T18:15:06.650Z,0
2017-09-21T18:15:48.349Z,0
2017-09-21T18:16:28.901Z,0
2017-09-21T18:17:09.445Z,0
2017-09-21T18:17:53.549Z,0
2017-09-21T18:18:33.993Z,0
2017-09-21T18:19:14.449Z,0
2017-09-21T18:19:56.257Z,0
2017-09-21T18:20:37.691Z,0
2017-09-21T18:21:18.216Z,0
2017-09-21T18:21:58.728Z,0
2017-09-21T18:22:39.253Z,0
2017-09-21T18:23:20.667Z,0
2017-09-21T18:24:01.403Z,0
2017-09-21T18:24:41.967Z,0
2017-09-21T18:25:25.122Z,0
2017-09-21T18:26:05.616Z,0
2017-09-21T18:26:46.045Z,0
2017-09-21T18:27:26.505Z,0
2017-09-21T18:28:07.076Z,0
2017-09-21T18:28:48.245Z,0
2017-09-21T18:29:28.473Z,0
2017-09-21T18:30:08.936Z,0
2017-09-21T18:30:49.381Z,0
2017-09-21T18:31:29.853Z,0
2017-09-21T18:32:10.326Z,0
2017-09-21T18:32:50.715Z,0
2017-09-21T18:33:31.154Z,0
2017-09-21T18:34:11.718Z,0
2017-09-21T18:34:52.286Z,0
2017-09-21T18:35:32.706Z,0
2017-09-21T18:36:13.140Z,0
2017-09-21T18:36:53.592Z,0
2017-09-21T18:37:34.044Z,0
2017-09-21T18:38:14.513Z,0
2017-09-21T18:38:54.958Z,0
2017-09-21T18:39:35.410Z,0
2017-09-21T18:40:16.428Z,0
2017-09-21T18:40:56.972Z,0
2017-09-21T18:41:37.466Z,0
2017-09-21T18:42:17.908Z,0
2017-09-21T18:42:58.770Z,0
2017-09-21T18:43:39.272Z,0
2017-09-21T18:44:19.841Z,0
2017-09-21T18:45:00.832Z,0
2017-09-21T18:45:41.402Z,0
2017-09-21T18:46:21.897Z,0
2017-09-21T18:47:02.320Z,0
2017-09-21T18:47:42.736Z,0
2017-09-21T18:48:23.207Z,0
2017-09-21T18:49:03.731Z,0
2017-09-21T18:49:44.249Z,0
2017-09-21T18:50:24.723Z,0
2017-09-21T18:51:05.171Z,0
2017-09-21T18:51:45.708Z,0
2017-09-21T18:52:26.068Z,0
2017-09-21T18:53:06.487Z,0
2017-09-21T18:53:46.958Z,0
2017-09-21T18:54:27.494Z,0
2017-09-21T18:55:07.940Z,0
2017-09-21T18:55:48.434Z,0
2017-09-21T18:56:28.930Z,0
2017-09-21T18:57:09.319Z,0
2017-09-21T18:57:49.843Z,0
2017-09-21T18:58:30.256Z,0
2017-09-21T18:59:10.760Z,0
2017-09-21T18:59:51.180Z,0
2017-09-21T19:00:31.560Z,0
2017-09-21T19:01:12.020Z,0
2017-09-21T19:01:52.567Z,0
2017-09-21T19:02:33.010Z,0
2017-09-21T19:03:13.513Z,0
2017-09-21T19:03:54.081Z,0
2017-09-21T19:04:34.495Z,0
2017-09-21T19:05:14.878Z,0
2017-09-21T19:05:55.440Z,0
2017-09-21T19:06:35.928Z,0
2017-09-21T19:07:16.431Z,0
2017-09-21T19:07:56.846Z,0
2017-09-21T19:08:37.322Z,0
2017-09-21T19:09:17.861Z,0
2017-09-21T19:09:58.321Z,0
2017-09-21T19:10:38.799Z,0
2017-09-21T19:11:19.212Z,0
2017-09-21T19:11:59.815Z,0
2017-09-21T19:12:40.206Z,0
2017-09-21T19:13:20.722Z,0
2017-09-21T19:14:01.111Z,0
2017-09-21T19:14:41.517Z,0
2017-09-21T19:15:21.985Z,0
2017-09-21T19:16:02.349Z,0
2017-09-21T19:16:42.882Z,0
2017-09-21T19:17:23.273Z,0
2017-09-21T19:18:03.829Z,0
2017-09-21T19:18:44.273Z,0
2017-09-21T19:19:24.790Z,0
2017-09-21T19:20:05.979Z,0
2017-09-21T19:20:45.782Z,0
2017-09-21T19:21:26.191Z,0
2017-09-21T19:22:06.654Z,0
2017-09-21T19:22:47.358Z,0
2017-09-21T19:23:27.811Z,0
2017-09-21T19:24:08.254Z,0
2017-09-21T19:24:48.607Z,0
2017-09-21T19:25:29.159Z,0
2017-09-21T19:26:09.796Z,0
2017-09-21T19:26:50.210Z,0
2017-09-21T19:27:30.659Z,0
2017-09-21T19:28:11.093Z,0
2017-09-21T19:28:51.491Z,0
2017-09-21T19:29:31.942Z,0
2017-09-21T19:30:12.318Z,0
2017-09-21T19:30:52.832Z,0
2017-09-21T19:31:33.339Z,0
2017-09-21T19:32:13.674Z,0
2017-09-21T19:32:54.383Z,0
2017-09-21T19:33:34.843Z,0
2017-09-21T19:34:15.273Z,0
2017-09-21T19:34:55.842Z,0
2017-09-21T19:35:36.526Z,0
2017-09-21T19:36:16.707Z,0
2017-09-21T19:36:57.322Z,0
2017-09-21T19:37:38.307Z,0
2017-09-21T19:38:18.675Z,0
2017-09-21T19:38:59.685Z,0
2017-09-21T19:39:41.052Z,0
2017-09-21T19:40:22.863Z,0
2017-09-21T19:41:03.002Z,0
2017-09-21T19:41:43.495Z,0
2017-09-21T19:42:25.088Z,0
2017-09-21T19:43:06.372Z,0
2017-09-21T19:43:47.587Z,0
2017-09-21T19:44:30.661Z,0
2017-09-21T19:45:12.634Z,0
2017-09-21T19:45:54.861Z,0
2017-09-21T19:46:35.205Z,0
2017-09-21T19:47:15.650Z,0
2017-09-21T19:47:57.427Z,0
2017-09-21T19:48:38.122Z,0
2017-09-21T19:49:18.798Z,0
2017-09-21T19:49:59.867Z,0
2017-09-21T19:50:41.233Z,0
2017-09-21T19:51:21.961Z,0
2017-09-21T19:52:02.750Z,0
2017-09-21T19:52:43.285Z,0
2017-09-21T19:53:24.372Z,0
2017-09-21T19:54:06.205Z,0
2017-09-21T19:54:46.407Z,0
2017-09-21T19:55:27.041Z,0
2017-09-21T19:56:09.084Z,0
2017-09-21T19:56:49.533Z,0
2017-09-21T19:57:32.200Z,0
2017-09-21T19:58:12.652Z,0
2017-09-21T19:58:53.104Z,0
2017-09-21T19:59:34.402Z,0
2017-09-21T20:00:14.831Z,0
2017-09-21T20:00:56.995Z,0
2017-09-21T20:01:37.412Z,0
2017-09-21T20:02:18.029Z,0
2017-09-21T20:02:59.608Z,0
2017-09-21T20:03:41.556Z,0
2017-09-21T20:04:22.143Z,0
2017-09-21T20:05:03.417Z,0
2017-09-21T20:05:47.868Z,0
2017-09-21T20:06:28.534Z,0
2017-09-21T20:07:09.312Z,0
2017-09-21T20:07:50.801Z,0
2017-09-21T20:08:33.775Z,0
2017-09-21T20:09:19.653Z,0
2017-09-21T20:10:01.957Z,0
2017-09-21T20:10:47.311Z,0
2017-09-21T20:11:27.855Z,0
2017-09-21T20:12:10.303Z,0
2017-09-21T20:12:50.998Z,0
2017-09-21T20:13:31.393Z,0
2017-09-21T20:14:12.263Z,0
2017-09-21T20:14:53.100Z,0
2017-09-21T20:15:33.567Z,0
2017-09-21T20:16:17.275Z,0
2017-09-21T20:16:57.583Z,0
2017-09-21T20:17:38.281Z,0
2017-09-21T20:18:24.313Z,0
2017-09-21T20:19:03.859Z,0
2017-09-21T20:19:45.766Z,0
2017-09-21T20:20:28.705Z,0
2017-09-21T20:21:09.735Z,0
2017-09-21T20:21:51.801Z,0
2017-09-21T20:22:33.238Z,0
2017-09-21T20:23:17.181Z,0
2017-09-21T20:23:59.392Z,0
2017-09-21T20:44:24.129Z,0
2017-09-21T20:45:03.134Z,0
2017-09-21T20:45:43.262Z,0
2017-09-21T20:46:23.646Z,0
2017-09-21T20:47:04.255Z,0
2017-09-21T20:47:44.623Z,0
2017-09-21T20:48:24.988Z,0
2017-09-21T20:49:05.419Z,0
2017-09-21T20:49:46.125Z,0
2017-09-21T20:50:27.291Z,0
2017-09-21T20:51:07.739Z,0
2017-09-21T20:51:48.491Z,0
2017-09-21T20:52:28.899Z,0
2017-09-21T20:53:09.380Z,0
2017-09-21T20:53:50.069Z,0
2017-09-21T20:54:30.493Z,0
2017-09-21T20:55:10.852Z,0
2017-09-21T20:55:51.445Z,0
2017-09-21T20:56:31.946Z,0
2017-09-21T20:57:12.398Z,0
2017-09-21T20:57:52.805Z,0
2017-09-21T20:58:33.417Z,0
2017-09-21T20:59:13.831Z,0
2017-09-21T20:59:55.788Z,0
2017-09-21T21:00:37.572Z,0
2017-09-21T21:01:17.646Z,0
2017-09-21T21:01:59.241Z,0
2017-09-21T21:02:40.811Z,0
2017-09-21T21:03:22.282Z,0
2017-09-21T21:04:02.993Z,0
2017-09-21T21:04:43.508Z,0
2017-09-21T21:05:23.980Z,0
2017-09-21T21:06:05.550Z,0
2017-09-21T21:06:45.941Z,0
2017-09-21T21:07:26.441Z,0
2017-09-21T21:08:06.945Z,0
2017-09-21T21:08:47.400Z,0
2017-09-21T21:09:27.769Z,0
2017-09-21T21:10:08.204Z,0
2017-09-21T21:10:48.654Z,0
2017-09-21T21:11:29.099Z,0
2017-09-21T21:12:10.021Z,0
2017-09-21T21:12:50.627Z,0
2017-09-21T21:13:31.085Z,0
2017-09-21T21:14:11.594Z,0
2017-09-21T21:14:52.009Z,0
2017-09-21T21:15:33.841Z,0
2017-09-21T21:16:14.465Z,0
2017-09-21T21:17:00.315Z,0
2017-09-21T21:17:44.024Z,0
2017-09-21T21:18:24.165Z,0
2017-09-21T21:19:05.093Z,0
2017-09-21T21:19:47.252Z,0
2017-09-21T21:20:27.715Z,0
2017-09-21T21:21:08.114Z,0
2017-09-21T21:21:48.610Z,0
2017-09-21T21:22:29.954Z,0
2017-09-21T21:23:10.406Z,0
2017-09-21T21:23:51.329Z,0
2017-09-21T21:24:31.938Z,0
2017-09-21T21:25:12.562Z,0
2017-09-21T21:25:53.070Z,0
2017-09-21T21:26:34.519Z,0
2017-09-21T21:27:16.452Z,0
2017-09-21T21:27:56.995Z,0
2017-09-21T21:28:37.476Z,0
2017-09-21T21:29:20.076Z,0